sensor_id;sensor_type;location;lat;lon;timestamp;P1;durP1;ratioP1;P2;durP2;ratioP2
68858;SDS011;55864;49.238;8.092;2023-02-23T00:00:33;28.88;;;13.93;;
68858;SDS011;55864;49.238;8.092;2023-02-23T00:02:34;29.40;;;14.15;;
68858;SDS011;55864;49.238;8.092;2023-02-23T00:04:34;31.20;;;14.15;;
68858;SDS011;55864;49.238;8.092;2023-02-23T00:06:35;28.65;;;13.38;;
68858;SDS011;55864;49.238;8.092;2023-02-23T00:08:36;30.42;;;13.65;;
68858;SDS011;55864;49.238;8.092;2023-02-23T00:10:38;28.52;;;13.73;;
68858;SDS011;55864;49.238;8.092;2023-02-23T00:12:38;31.77;;;13.55;;
68858;SDS011;55864;49.238;8.092;2023-02-23T00:14:39;30.57;;;14.70;;
68858;SDS011;55864;49.238;8.092;2023-02-23T00:16:41;31.35;;;14.65;;
68858;SDS011;55864;49.238;8.092;2023-02-23T00:18:42;28.73;;;13.27;;
68858;SDS011;55864;49.238;8.092;2023-02-23T00:20:43;29.87;;;13.33;;
68858;SDS011;55864;49.238;8.092;2023-02-23T00:22:44;30.53;;;14.20;;
68858;SDS011;55864;49.238;8.092;2023-02-23T00:24:44;29.00;;;15.07;;
68858;SDS011;55864;49.238;8.092;2023-02-23T00:26:45;32.07;;;14.97;;
68858;SDS011;55864;49.238;8.092;2023-02-23T00:28:47;33.90;;;15.63;;
68858;SDS011;55864;49.238;8.092;2023-02-23T00:30:48;33.67;;;16.07;;
68858;SDS011;55864;49.238;8.092;2023-02-23T00:32:51;30.40;;;14.10;;
68858;SDS011;55864;49.238;8.092;2023-02-23T00:34:52;32.43;;;15.23;;
68858;SDS011;55864;49.238;8.092;2023-02-23T00:36:53;28.23;;;13.50;;
68858;SDS011;55864;49.238;8.092;2023-02-23T00:38:54;35.70;;;14.87;;
68858;SDS011;55864;49.238;8.092;2023-02-23T00:40:56;34.77;;;14.93;;
68858;SDS011;55864;49.238;8.092;2023-02-23T00:42:56;27.85;;;13.80;;
68858;SDS011;55864;49.238;8.092;2023-02-23T00:44:57;30.50;;;14.17;;
68858;SDS011;55864;49.238;8.092;2023-02-23T00:46:57;31.50;;;14.00;;
68858;SDS011;55864;49.238;8.092;2023-02-23T00:48:59;35.43;;;14.53;;
68858;SDS011;55864;49.238;8.092;2023-02-23T00:51:00;32.00;;;15.10;;
68858;SDS011;55864;49.238;8.092;2023-02-23T00:53:01;31.87;;;14.43;;
68858;SDS011;55864;49.238;8.092;2023-02-23T00:55:02;31.60;;;14.60;;
68858;SDS011;55864;49.238;8.092;2023-02-23T00:57:03;29.27;;;14.10;;
68858;SDS011;55864;49.238;8.092;2023-02-23T00:59:03;32.77;;;14.80;;
68858;SDS011;55864;49.238;8.092;2023-02-23T01:01:04;32.03;;;13.97;;
68858;SDS011;55864;49.238;8.092;2023-02-23T01:03:05;31.00;;;14.40;;
68858;SDS011;55864;49.238;8.092;2023-02-23T01:05:07;34.20;;;14.60;;
68858;SDS011;55864;49.238;8.092;2023-02-23T01:07:08;27.73;;;12.95;;
68858;SDS011;55864;49.238;8.092;2023-02-23T01:09:10;32.37;;;15.13;;
68858;SDS011;55864;49.238;8.092;2023-02-23T01:11:13;28.20;;;14.10;;
68858;SDS011;55864;49.238;8.092;2023-02-23T01:15:16;31.07;;;13.97;;
68858;SDS011;55864;49.238;8.092;2023-02-23T01:17:17;33.07;;;14.20;;
68858;SDS011;55864;49.238;8.092;2023-02-23T01:19:18;31.23;;;15.07;;
68858;SDS011;55864;49.238;8.092;2023-02-23T01:21:21;30.57;;;14.30;;
68858;SDS011;55864;49.238;8.092;2023-02-23T01:23:23;38.03;;;15.33;;
68858;SDS011;55864;49.238;8.092;2023-02-23T01:25:23;31.00;;;13.70;;
68858;SDS011;55864;49.238;8.092;2023-02-23T01:27:24;28.67;;;13.97;;
68858;SDS011;55864;49.238;8.092;2023-02-23T01:29:27;27.10;;;12.40;;
68858;SDS011;55864;49.238;8.092;2023-02-23T01:31:28;27.60;;;14.20;;
68858;SDS011;55864;49.238;8.092;2023-02-23T01:33:29;29.42;;;13.05;;
68858;SDS011;55864;49.238;8.092;2023-02-23T01:35:32;27.33;;;12.63;;
68858;SDS011;55864;49.238;8.092;2023-02-23T01:37:35;30.65;;;12.82;;
68858;SDS011;55864;49.238;8.092;2023-02-23T01:41:38;28.17;;;12.80;;
68858;SDS011;55864;49.238;8.092;2023-02-23T01:43:53;28.10;;;13.03;;
68858;SDS011;55864;49.238;8.092;2023-02-23T01:45:56;24.93;;;12.60;;
68858;SDS011;55864;49.238;8.092;2023-02-23T01:47:58;30.30;;;14.13;;
68858;SDS011;55864;49.238;8.092;2023-02-23T01:50:03;29.65;;;12.82;;
68858;SDS011;55864;49.238;8.092;2023-02-23T01:52:05;27.17;;;13.10;;
68858;SDS011;55864;49.238;8.092;2023-02-23T01:54:11;25.73;;;13.07;;
68858;SDS011;55864;49.238;8.092;2023-02-23T01:56:14;25.70;;;13.53;;
68858;SDS011;55864;49.238;8.092;2023-02-23T01:58:20;27.57;;;13.57;;
68858;SDS011;55864;49.238;8.092;2023-02-23T02:00:22;30.40;;;14.47;;
68858;SDS011;55864;49.238;8.092;2023-02-23T02:02:25;30.10;;;14.02;;
68858;SDS011;55864;49.238;8.092;2023-02-23T02:04:31;33.17;;;13.82;;
68858;SDS011;55864;49.238;8.092;2023-02-23T02:06:36;30.85;;;14.20;;
68858;SDS011;55864;49.238;8.092;2023-02-23T02:08:39;28.63;;;13.47;;
68858;SDS011;55864;49.238;8.092;2023-02-23T02:10:46;30.23;;;13.83;;
68858;SDS011;55864;49.238;8.092;2023-02-23T02:12:48;26.00;;;12.90;;
68858;SDS011;55864;49.238;8.092;2023-02-23T02:14:52;28.88;;;14.13;;
68858;SDS011;55864;49.238;8.092;2023-02-23T02:16:59;31.33;;;14.07;;
68858;SDS011;55864;49.238;8.092;2023-02-23T02:19:29;31.73;;;13.70;;
68858;SDS011;55864;49.238;8.092;2023-02-23T02:21:56;32.13;;;13.07;;
68858;SDS011;55864;49.238;8.092;2023-02-23T02:24:49;31.77;;;13.35;;
68858;SDS011;55864;49.238;8.092;2023-02-23T02:27:25;28.67;;;13.82;;
68858;SDS011;55864;49.238;8.092;2023-02-23T02:29:42;29.40;;;14.73;;
68858;SDS011;55864;49.238;8.092;2023-02-23T02:34:53;30.53;;;14.10;;
68858;SDS011;55864;49.238;8.092;2023-02-23T02:37:12;32.83;;;14.70;;
68858;SDS011;55864;49.238;8.092;2023-02-23T02:39:31;32.23;;;14.33;;
68858;SDS011;55864;49.238;8.092;2023-02-23T02:41:45;32.55;;;14.55;;
68858;SDS011;55864;49.238;8.092;2023-02-23T02:43:48;29.90;;;14.47;;
68858;SDS011;55864;49.238;8.092;2023-02-23T02:45:58;33.80;;;14.10;;
68858;SDS011;55864;49.238;8.092;2023-02-23T02:48:05;29.30;;;14.27;;
68858;SDS011;55864;49.238;8.092;2023-02-23T02:50:14;38.20;;;15.63;;
68858;SDS011;55864;49.238;8.092;2023-02-23T02:52:23;32.57;;;13.50;;
68858;SDS011;55864;49.238;8.092;2023-02-23T02:54:29;28.80;;;14.60;;
68858;SDS011;55864;49.238;8.092;2023-02-23T02:56:35;36.13;;;15.03;;
68858;SDS011;55864;49.238;8.092;2023-02-23T02:58:39;35.17;;;15.10;;
68858;SDS011;55864;49.238;8.092;2023-02-23T03:00:43;33.50;;;15.03;;
68858;SDS011;55864;49.238;8.092;2023-02-23T03:02:46;34.50;;;16.33;;
68858;SDS011;55864;49.238;8.092;2023-02-23T03:04:47;31.37;;;15.13;;
68858;SDS011;55864;49.238;8.092;2023-02-23T03:06:51;33.20;;;15.13;;
68858;SDS011;55864;49.238;8.092;2023-02-23T03:09:00;30.93;;;15.53;;
68858;SDS011;55864;49.238;8.092;2023-02-23T03:11:08;33.67;;;16.20;;
68858;SDS011;55864;49.238;8.092;2023-02-23T03:13:14;33.37;;;15.30;;
68858;SDS011;55864;49.238;8.092;2023-02-23T03:15:32;29.50;;;14.30;;
68858;SDS011;55864;49.238;8.092;2023-02-23T03:17:42;36.87;;;16.53;;
68858;SDS011;55864;49.238;8.092;2023-02-23T03:19:47;31.63;;;15.50;;
68858;SDS011;55864;49.238;8.092;2023-02-23T03:21:57;36.67;;;15.80;;
68858;SDS011;55864;49.238;8.092;2023-02-23T03:24:10;33.90;;;15.27;;
68858;SDS011;55864;49.238;8.092;2023-02-23T03:26:22;37.03;;;15.50;;
68858;SDS011;55864;49.238;8.092;2023-02-23T03:28:31;34.10;;;15.37;;
68858;SDS011;55864;49.238;8.092;2023-02-23T03:30:38;31.92;;;15.68;;
68858;SDS011;55864;49.238;8.092;2023-02-23T03:32:46;29.33;;;14.50;;
68858;SDS011;55864;49.238;8.092;2023-02-23T03:34:52;34.00;;;14.82;;
68858;SDS011;55864;49.238;8.092;2023-02-23T03:37:02;34.72;;;15.88;;
68858;SDS011;55864;49.238;8.092;2023-02-23T03:39:13;33.22;;;16.40;;
68858;SDS011;55864;49.238;8.092;2023-02-23T03:41:19;31.05;;;14.50;;
68858;SDS011;55864;49.238;8.092;2023-02-23T03:45:26;31.50;;;15.15;;
68858;SDS011;55864;49.238;8.092;2023-02-23T03:47:30;34.35;;;15.75;;
68858;SDS011;55864;49.238;8.092;2023-02-23T03:49:37;38.22;;;17.23;;
68858;SDS011;55864;49.238;8.092;2023-02-23T03:51:40;37.63;;;16.45;;
68858;SDS011;55864;49.238;8.092;2023-02-23T03:53:46;37.67;;;16.48;;
68858;SDS011;55864;49.238;8.092;2023-02-23T03:55:53;35.60;;;16.43;;
68858;SDS011;55864;49.238;8.092;2023-02-23T03:57:55;31.85;;;15.27;;
68858;SDS011;55864;49.238;8.092;2023-02-23T04:00:00;34.55;;;15.65;;
68858;SDS011;55864;49.238;8.092;2023-02-23T04:02:13;37.15;;;16.85;;
68858;SDS011;55864;49.238;8.092;2023-02-23T04:04:17;35.33;;;17.07;;
68858;SDS011;55864;49.238;8.092;2023-02-23T04:06:20;39.47;;;17.77;;
68858;SDS011;55864;49.238;8.092;2023-02-23T04:08:24;38.30;;;16.60;;
68858;SDS011;55864;49.238;8.092;2023-02-23T04:10:29;36.00;;;17.10;;
68858;SDS011;55864;49.238;8.092;2023-02-23T04:12:36;35.90;;;17.83;;
68858;SDS011;55864;49.238;8.092;2023-02-23T04:14:42;40.53;;;17.80;;
68858;SDS011;55864;49.238;8.092;2023-02-23T04:16:50;39.73;;;18.50;;
68858;SDS011;55864;49.238;8.092;2023-02-23T04:18:51;39.58;;;18.05;;
68858;SDS011;55864;49.238;8.092;2023-02-23T04:20:52;40.00;;;18.13;;
68858;SDS011;55864;49.238;8.092;2023-02-23T04:22:54;42.67;;;19.05;;
68858;SDS011;55864;49.238;8.092;2023-02-23T04:24:54;41.17;;;17.83;;
68858;SDS011;55864;49.238;8.092;2023-02-23T04:26:58;39.20;;;18.30;;
68858;SDS011;55864;49.238;8.092;2023-02-23T04:29:03;37.27;;;17.10;;
68858;SDS011;55864;49.238;8.092;2023-02-23T04:31:03;41.93;;;18.83;;
68858;SDS011;55864;49.238;8.092;2023-02-23T04:33:07;38.58;;;17.63;;
68858;SDS011;55864;49.238;8.092;2023-02-23T04:35:08;36.50;;;16.67;;
68858;SDS011;55864;49.238;8.092;2023-02-23T04:37:09;36.45;;;17.25;;
68858;SDS011;55864;49.238;8.092;2023-02-23T04:39:09;33.13;;;16.73;;
68858;SDS011;55864;49.238;8.092;2023-02-23T04:41:13;34.65;;;17.63;;
68858;SDS011;55864;49.238;8.092;2023-02-23T04:43:14;39.40;;;19.33;;
68858;SDS011;55864;49.238;8.092;2023-02-23T04:45:16;37.78;;;18.13;;
68858;SDS011;55864;49.238;8.092;2023-02-23T04:47:16;32.92;;;16.83;;
68858;SDS011;55864;49.238;8.092;2023-02-23T04:49:17;34.80;;;18.00;;
68858;SDS011;55864;49.238;8.092;2023-02-23T04:51:17;36.72;;;18.50;;
68858;SDS011;55864;49.238;8.092;2023-02-23T04:53:18;38.67;;;19.27;;
68858;SDS011;55864;49.238;8.092;2023-02-23T04:55:19;38.13;;;20.13;;
68858;SDS011;55864;49.238;8.092;2023-02-23T04:57:21;37.03;;;18.42;;
68858;SDS011;55864;49.238;8.092;2023-02-23T04:59:22;33.55;;;17.52;;
68858;SDS011;55864;49.238;8.092;2023-02-23T05:01:24;35.58;;;16.80;;
68858;SDS011;55864;49.238;8.092;2023-02-23T05:03:24;32.03;;;15.98;;
68858;SDS011;55864;49.238;8.092;2023-02-23T05:05:25;34.07;;;16.13;;
68858;SDS011;55864;49.238;8.092;2023-02-23T05:07:25;34.17;;;16.48;;
68858;SDS011;55864;49.238;8.092;2023-02-23T05:09:26;31.48;;;15.98;;
68858;SDS011;55864;49.238;8.092;2023-02-23T05:11:26;33.70;;;16.23;;
68858;SDS011;55864;49.238;8.092;2023-02-23T05:13:27;30.17;;;15.98;;
68858;SDS011;55864;49.238;8.092;2023-02-23T05:15:27;32.53;;;14.88;;
68858;SDS011;55864;49.238;8.092;2023-02-23T05:17:29;25.88;;;12.90;;
68858;SDS011;55864;49.238;8.092;2023-02-23T05:19:30;26.30;;;12.63;;
68858;SDS011;55864;49.238;8.092;2023-02-23T05:21:30;31.90;;;13.43;;
68858;SDS011;55864;49.238;8.092;2023-02-23T05:23:31;27.05;;;12.90;;
68858;SDS011;55864;49.238;8.092;2023-02-23T05:25:32;25.23;;;11.77;;
68858;SDS011;55864;49.238;8.092;2023-02-23T05:27:32;23.73;;;11.82;;
68858;SDS011;55864;49.238;8.092;2023-02-23T05:29:33;20.47;;;10.93;;
68858;SDS011;55864;49.238;8.092;2023-02-23T05:31:34;21.10;;;9.77;;
68858;SDS011;55864;49.238;8.092;2023-02-23T05:33:36;19.92;;;10.25;;
68858;SDS011;55864;49.238;8.092;2023-02-23T05:35:38;19.05;;;9.25;;
68858;SDS011;55864;49.238;8.092;2023-02-23T05:37:39;18.63;;;9.18;;
68858;SDS011;55864;49.238;8.092;2023-02-23T05:39:39;17.42;;;8.68;;
68858;SDS011;55864;49.238;8.092;2023-02-23T05:41:40;19.08;;;9.50;;
68858;SDS011;55864;49.238;8.092;2023-02-23T05:43:40;19.35;;;8.65;;
68858;SDS011;55864;49.238;8.092;2023-02-23T05:45:41;17.45;;;9.10;;
68858;SDS011;55864;49.238;8.092;2023-02-23T05:47:42;18.55;;;8.52;;
68858;SDS011;55864;49.238;8.092;2023-02-23T05:49:44;16.43;;;8.67;;
68858;SDS011;55864;49.238;8.092;2023-02-23T05:51:45;17.70;;;8.53;;
68858;SDS011;55864;49.238;8.092;2023-02-23T05:53:45;16.73;;;8.13;;
68858;SDS011;55864;49.238;8.092;2023-02-23T05:55:46;20.63;;;8.80;;
68858;SDS011;55864;49.238;8.092;2023-02-23T05:57:46;19.35;;;8.82;;
68858;SDS011;55864;49.238;8.092;2023-02-23T05:59:47;21.27;;;9.27;;
68858;SDS011;55864;49.238;8.092;2023-02-23T06:01:47;17.98;;;9.07;;
68858;SDS011;55864;49.238;8.092;2023-02-23T06:03:48;21.10;;;10.00;;
68858;SDS011;55864;49.238;8.092;2023-02-23T06:05:51;19.07;;;9.27;;
68858;SDS011;55864;49.238;8.092;2023-02-23T06:07:53;21.07;;;10.23;;
68858;SDS011;55864;49.238;8.092;2023-02-23T06:09:54;19.58;;;9.82;;
68858;SDS011;55864;49.238;8.092;2023-02-23T06:11:54;17.65;;;9.02;;
68858;SDS011;55864;49.238;8.092;2023-02-23T06:13:56;19.55;;;9.23;;
68858;SDS011;55864;49.238;8.092;2023-02-23T06:15:57;19.90;;;9.83;;
68858;SDS011;55864;49.238;8.092;2023-02-23T06:17:58;20.25;;;9.57;;
68858;SDS011;55864;49.238;8.092;2023-02-23T06:19:58;22.63;;;8.98;;
68858;SDS011;55864;49.238;8.092;2023-02-23T06:22:00;19.30;;;9.07;;
68858;SDS011;55864;49.238;8.092;2023-02-23T06:24:00;17.43;;;9.00;;
68858;SDS011;55864;49.238;8.092;2023-02-23T06:26:01;19.40;;;9.50;;
68858;SDS011;55864;49.238;8.092;2023-02-23T06:28:02;21.02;;;10.18;;
68858;SDS011;55864;49.238;8.092;2023-02-23T06:30:03;18.13;;;9.93;;
68858;SDS011;55864;49.238;8.092;2023-02-23T06:32:04;19.77;;;10.37;;
68858;SDS011;55864;49.238;8.092;2023-02-23T06:34:05;23.17;;;10.93;;
68858;SDS011;55864;49.238;8.092;2023-02-23T06:36:06;21.27;;;10.20;;
68858;SDS011;55864;49.238;8.092;2023-02-23T06:38:08;21.35;;;10.00;;
68858;SDS011;55864;49.238;8.092;2023-02-23T06:40:09;20.48;;;9.88;;
68858;SDS011;55864;49.238;8.092;2023-02-23T06:42:10;19.03;;;8.80;;
68858;SDS011;55864;49.238;8.092;2023-02-23T06:44:11;19.60;;;9.27;;
68858;SDS011;55864;49.238;8.092;2023-02-23T06:46:12;20.23;;;8.80;;
68858;SDS011;55864;49.238;8.092;2023-02-23T06:48:12;18.55;;;9.15;;
68858;SDS011;55864;49.238;8.092;2023-02-23T06:50:13;25.57;;;11.60;;
68858;SDS011;55864;49.238;8.092;2023-02-23T06:52:14;22.87;;;9.90;;
68858;SDS011;55864;49.238;8.092;2023-02-23T06:54:16;21.87;;;9.87;;
68858;SDS011;55864;49.238;8.092;2023-02-23T06:56:16;17.13;;;8.90;;
68858;SDS011;55864;49.238;8.092;2023-02-23T06:58:17;19.73;;;8.70;;
68858;SDS011;55864;49.238;8.092;2023-02-23T07:00:18;19.40;;;9.70;;
68858;SDS011;55864;49.238;8.092;2023-02-23T07:02:19;18.55;;;8.65;;
68858;SDS011;55864;49.238;8.092;2023-02-23T07:04:19;18.53;;;8.77;;
68858;SDS011;55864;49.238;8.092;2023-02-23T07:06:20;18.37;;;8.80;;
68858;SDS011;55864;49.238;8.092;2023-02-23T07:08:20;18.52;;;8.85;;
68858;SDS011;55864;49.238;8.092;2023-02-23T07:10:22;18.77;;;8.63;;
68858;SDS011;55864;49.238;8.092;2023-02-23T07:12:23;16.30;;;7.80;;
68858;SDS011;55864;49.238;8.092;2023-02-23T07:14:23;16.40;;;7.70;;
68858;SDS011;55864;49.238;8.092;2023-02-23T07:16:24;16.63;;;8.47;;
68858;SDS011;55864;49.238;8.092;2023-02-23T07:18:25;19.03;;;8.03;;
68858;SDS011;55864;49.238;8.092;2023-02-23T07:20:25;17.23;;;7.82;;
68858;SDS011;55864;49.238;8.092;2023-02-23T07:22:26;16.60;;;8.07;;
68858;SDS011;55864;49.238;8.092;2023-02-23T07:24:26;21.27;;;8.82;;
68858;SDS011;55864;49.238;8.092;2023-02-23T07:26:28;17.67;;;8.70;;
68858;SDS011;55864;49.238;8.092;2023-02-23T07:28:29;18.67;;;8.15;;
68858;SDS011;55864;49.238;8.092;2023-02-23T07:30:30;22.13;;;9.60;;
68858;SDS011;55864;49.238;8.092;2023-02-23T07:32:30;20.58;;;8.82;;
68858;SDS011;55864;49.238;8.092;2023-02-23T07:34:30;18.73;;;8.70;;
68858;SDS011;55864;49.238;8.092;2023-02-23T07:36:31;22.90;;;11.10;;
68858;SDS011;55864;49.238;8.092;2023-02-23T07:38:32;22.23;;;10.20;;
68858;SDS011;55864;49.238;8.092;2023-02-23T07:40:32;23.80;;;9.70;;
68858;SDS011;55864;49.238;8.092;2023-02-23T07:42:34;19.43;;;8.77;;
68858;SDS011;55864;49.238;8.092;2023-02-23T07:44:37;19.40;;;8.20;;
68858;SDS011;55864;49.238;8.092;2023-02-23T07:46:38;17.15;;;8.68;;
68858;SDS011;55864;49.238;8.092;2023-02-23T07:48:39;17.63;;;8.13;;
68858;SDS011;55864;49.238;8.092;2023-02-23T07:50:39;23.23;;;9.98;;
68858;SDS011;55864;49.238;8.092;2023-02-23T07:52:41;20.67;;;9.32;;
68858;SDS011;55864;49.238;8.092;2023-02-23T07:54:42;20.80;;;9.85;;
68858;SDS011;55864;49.238;8.092;2023-02-23T07:56:42;20.67;;;8.80;;
68858;SDS011;55864;49.238;8.092;2023-02-23T07:58:44;20.33;;;9.30;;
68858;SDS011;55864;49.238;8.092;2023-02-23T08:00:45;20.52;;;9.98;;
68858;SDS011;55864;49.238;8.092;2023-02-23T08:02:45;19.90;;;9.00;;
68858;SDS011;55864;49.238;8.092;2023-02-23T08:04:46;18.25;;;8.88;;
68858;SDS011;55864;49.238;8.092;2023-02-23T08:06:46;19.25;;;8.38;;
68858;SDS011;55864;49.238;8.092;2023-02-23T08:08:47;19.25;;;8.65;;
68858;SDS011;55864;49.238;8.092;2023-02-23T08:10:47;20.92;;;9.68;;
68858;SDS011;55864;49.238;8.092;2023-02-23T08:12:48;17.50;;;8.00;;
68858;SDS011;55864;49.238;8.092;2023-02-23T08:14:50;19.60;;;8.60;;
68858;SDS011;55864;49.238;8.092;2023-02-23T08:16:50;27.58;;;10.23;;
68858;SDS011;55864;49.238;8.092;2023-02-23T08:18:51;27.33;;;9.98;;
68858;SDS011;55864;49.238;8.092;2023-02-23T08:20:56;19.40;;;9.18;;
68858;SDS011;55864;49.238;8.092;2023-02-23T08:22:57;22.15;;;10.15;;
68858;SDS011;55864;49.238;8.092;2023-02-23T08:24:58;19.73;;;9.32;;
68858;SDS011;55864;49.238;8.092;2023-02-23T08:26:59;20.83;;;9.05;;
68858;SDS011;55864;49.238;8.092;2023-02-23T08:29:01;26.58;;;11.75;;
68858;SDS011;55864;49.238;8.092;2023-02-23T08:31:03;18.95;;;9.30;;
68858;SDS011;55864;49.238;8.092;2023-02-23T08:33:08;23.20;;;10.30;;
68858;SDS011;55864;49.238;8.092;2023-02-23T08:35:09;24.80;;;9.75;;
68858;SDS011;55864;49.238;8.092;2023-02-23T08:37:09;28.33;;;10.05;;
68858;SDS011;55864;49.238;8.092;2023-02-23T08:39:10;26.52;;;9.93;;
68858;SDS011;55864;49.238;8.092;2023-02-23T08:41:11;70.70;;;21.50;;
68858;SDS011;55864;49.238;8.092;2023-02-23T08:43:12;33.20;;;11.93;;
68858;SDS011;55864;49.238;8.092;2023-02-23T08:45:12;74.53;;;23.00;;
68858;SDS011;55864;49.238;8.092;2023-02-23T08:47:14;31.45;;;12.23;;
68858;SDS011;55864;49.238;8.092;2023-02-23T08:49:15;31.50;;;12.80;;
68858;SDS011;55864;49.238;8.092;2023-02-23T08:51:16;32.15;;;12.10;;
68858;SDS011;55864;49.238;8.092;2023-02-23T08:53:16;23.23;;;10.70;;
68858;SDS011;55864;49.238;8.092;2023-02-23T08:55:17;28.00;;;10.88;;
68858;SDS011;55864;49.238;8.092;2023-02-23T08:57:17;28.02;;;12.00;;
68858;SDS011;55864;49.238;8.092;2023-02-23T08:59:18;25.05;;;10.82;;
68858;SDS011;55864;49.238;8.092;2023-02-23T09:01:19;25.67;;;9.85;;
68858;SDS011;55864;49.238;8.092;2023-02-23T09:03:22;20.60;;;9.33;;
68858;SDS011;55864;49.238;8.092;2023-02-23T09:05:23;30.52;;;11.30;;
68858;SDS011;55864;49.238;8.092;2023-02-23T09:07:24;21.60;;;9.38;;
68858;SDS011;55864;49.238;8.092;2023-02-23T09:09:24;21.90;;;9.30;;
68858;SDS011;55864;49.238;8.092;2023-02-23T09:11:25;21.35;;;10.63;;
68858;SDS011;55864;49.238;8.092;2023-02-23T09:13:26;18.08;;;8.27;;
68858;SDS011;55864;49.238;8.092;2023-02-23T09:15:26;19.00;;;8.73;;
68858;SDS011;55864;49.238;8.092;2023-02-23T09:17:27;17.08;;;8.23;;
68858;SDS011;55864;49.238;8.092;2023-02-23T09:19:28;19.75;;;9.20;;
68858;SDS011;55864;49.238;8.092;2023-02-23T09:21:29;19.10;;;9.43;;
68858;SDS011;55864;49.238;8.092;2023-02-23T09:23:29;20.98;;;9.10;;
68858;SDS011;55864;49.238;8.092;2023-02-23T09:25:30;22.65;;;9.60;;
68858;SDS011;55864;49.238;8.092;2023-02-23T09:27:30;20.98;;;8.40;;
68858;SDS011;55864;49.238;8.092;2023-02-23T09:29:31;19.20;;;8.55;;
68858;SDS011;55864;49.238;8.092;2023-02-23T09:31:32;20.15;;;8.10;;
68858;SDS011;55864;49.238;8.092;2023-02-23T09:33:33;20.02;;;9.00;;
68858;SDS011;55864;49.238;8.092;2023-02-23T09:35:35;18.17;;;8.23;;
68858;SDS011;55864;49.238;8.092;2023-02-23T09:37:36;17.50;;;7.63;;
68858;SDS011;55864;49.238;8.092;2023-02-23T09:39:36;21.48;;;8.05;;
68858;SDS011;55864;49.238;8.092;2023-02-23T09:41:53;16.05;;;7.55;;
68858;SDS011;55864;49.238;8.092;2023-02-23T09:44:02;17.60;;;7.75;;
68858;SDS011;55864;49.238;8.092;2023-02-23T09:46:13;17.23;;;7.53;;
68858;SDS011;55864;49.238;8.092;2023-02-23T09:48:26;17.25;;;7.32;;
68858;SDS011;55864;49.238;8.092;2023-02-23T09:50:29;16.17;;;6.80;;
68858;SDS011;55864;49.238;8.092;2023-02-23T09:52:34;17.42;;;6.68;;
68858;SDS011;55864;49.238;8.092;2023-02-23T09:54:39;13.68;;;6.70;;
68858;SDS011;55864;49.238;8.092;2023-02-23T09:56:40;13.73;;;6.93;;
68858;SDS011;55864;49.238;8.092;2023-02-23T09:58:44;16.40;;;7.38;;
68858;SDS011;55864;49.238;8.092;2023-02-23T10:00:45;15.23;;;6.57;;
68858;SDS011;55864;49.238;8.092;2023-02-23T10:02:58;16.70;;;6.97;;
68858;SDS011;55864;49.238;8.092;2023-02-23T10:05:05;16.27;;;6.95;;
68858;SDS011;55864;49.238;8.092;2023-02-23T10:07:11;18.13;;;7.30;;
68858;SDS011;55864;49.238;8.092;2023-02-23T10:09:20;18.08;;;7.53;;
68858;SDS011;55864;49.238;8.092;2023-02-23T10:11:27;21.27;;;7.53;;
68858;SDS011;55864;49.238;8.092;2023-02-23T10:13:36;18.00;;;6.60;;
68858;SDS011;55864;49.238;8.092;2023-02-23T10:15:44;14.32;;;6.47;;
68858;SDS011;55864;49.238;8.092;2023-02-23T10:17:54;14.27;;;6.13;;
68858;SDS011;55864;49.238;8.092;2023-02-23T10:20:08;15.32;;;6.68;;
68858;SDS011;55864;49.238;8.092;2023-02-23T10:22:18;12.75;;;5.80;;
68858;SDS011;55864;49.238;8.092;2023-02-23T10:24:23;11.82;;;5.40;;
68858;SDS011;55864;49.238;8.092;2023-02-23T10:26:27;17.70;;;6.20;;
68858;SDS011;55864;49.238;8.092;2023-02-23T10:28:36;16.00;;;5.97;;
68858;SDS011;55864;49.238;8.092;2023-02-23T10:30:37;16.90;;;6.57;;
68858;SDS011;55864;49.238;8.092;2023-02-23T10:32:40;14.48;;;6.22;;
68858;SDS011;55864;49.238;8.092;2023-02-23T10:34:48;14.43;;;5.80;;
68858;SDS011;55864;49.238;8.092;2023-02-23T10:36:55;13.73;;;6.30;;
68858;SDS011;55864;49.238;8.092;2023-02-23T10:38:57;14.13;;;5.43;;
68858;SDS011;55864;49.238;8.092;2023-02-23T10:41:00;13.95;;;5.78;;
68858;SDS011;55864;49.238;8.092;2023-02-23T10:43:00;18.55;;;6.25;;
68858;SDS011;55864;49.238;8.092;2023-02-23T10:45:02;13.93;;;5.20;;
68858;SDS011;55864;49.238;8.092;2023-02-23T10:47:05;18.08;;;5.78;;
68858;SDS011;55864;49.238;8.092;2023-02-23T10:49:11;14.25;;;5.50;;
68858;SDS011;55864;49.238;8.092;2023-02-23T10:51:17;14.43;;;5.28;;
68858;SDS011;55864;49.238;8.092;2023-02-23T10:53:24;12.60;;;5.28;;
68858;SDS011;55864;49.238;8.092;2023-02-23T10:55:26;13.05;;;5.25;;
68858;SDS011;55864;49.238;8.092;2023-02-23T10:57:31;12.55;;;4.70;;
68858;SDS011;55864;49.238;8.092;2023-02-23T10:59:34;14.75;;;5.38;;
68858;SDS011;55864;49.238;8.092;2023-02-23T11:01:35;12.13;;;4.85;;
68858;SDS011;55864;49.238;8.092;2023-02-23T11:03:38;13.88;;;5.10;;
68858;SDS011;55864;49.238;8.092;2023-02-23T11:05:42;10.20;;;4.63;;
68858;SDS011;55864;49.238;8.092;2023-02-23T11:07:44;9.82;;;3.97;;
68858;SDS011;55864;49.238;8.092;2023-02-23T11:09:45;12.15;;;4.63;;
68858;SDS011;55864;49.238;8.092;2023-02-23T11:11:54;12.68;;;4.40;;
68858;SDS011;55864;49.238;8.092;2023-02-23T11:13:57;14.05;;;4.70;;
68858;SDS011;55864;49.238;8.092;2023-02-23T11:15:58;10.45;;;4.30;;
68858;SDS011;55864;49.238;8.092;2023-02-23T11:18:00;11.80;;;4.97;;
68858;SDS011;55864;49.238;8.092;2023-02-23T11:22:05;10.90;;;3.80;;
68858;SDS011;55864;49.238;8.092;2023-02-23T11:24:17;10.10;;;4.60;;
68858;SDS011;55864;49.238;8.092;2023-02-23T11:28:29;9.85;;;4.13;;
68858;SDS011;55864;49.238;8.092;2023-02-23T11:30:34;10.90;;;3.80;;
68858;SDS011;55864;49.238;8.092;2023-02-23T11:32:38;11.90;;;5.32;;
68858;SDS011;55864;49.238;8.092;2023-02-23T11:37:37;14.68;;;5.97;;
68858;SDS011;55864;49.238;8.092;2023-02-23T11:39:51;12.48;;;5.10;;
68858;SDS011;55864;49.238;8.092;2023-02-23T11:42:12;14.27;;;5.50;;
68858;SDS011;55864;49.238;8.092;2023-02-23T11:44:23;13.45;;;5.45;;
68858;SDS011;55864;49.238;8.092;2023-02-23T11:46:31;12.30;;;5.38;;
68858;SDS011;55864;49.238;8.092;2023-02-23T11:48:46;13.52;;;5.32;;
68858;SDS011;55864;49.238;8.092;2023-02-23T11:50:56;13.45;;;6.22;;
68858;SDS011;55864;49.238;8.092;2023-02-23T11:53:04;13.13;;;6.20;;
68858;SDS011;55864;49.238;8.092;2023-02-23T11:55:19;17.63;;;5.63;;
68858;SDS011;55864;49.238;8.092;2023-02-23T11:57:34;12.73;;;6.00;;
68858;SDS011;55864;49.238;8.092;2023-02-23T11:59:43;11.38;;;5.20;;
68858;SDS011;55864;49.238;8.092;2023-02-23T12:01:49;12.02;;;5.15;;
68858;SDS011;55864;49.238;8.092;2023-02-23T12:03:56;14.07;;;5.28;;
68858;SDS011;55864;49.238;8.092;2023-02-23T12:06:07;13.43;;;5.53;;
68858;SDS011;55864;49.238;8.092;2023-02-23T12:08:32;12.02;;;4.88;;
68858;SDS011;55864;49.238;8.092;2023-02-23T12:10:40;11.77;;;5.60;;
68858;SDS011;55864;49.238;8.092;2023-02-23T12:12:51;12.40;;;5.00;;
68858;SDS011;55864;49.238;8.092;2023-02-23T12:15:09;12.00;;;4.97;;
68858;SDS011;55864;49.238;8.092;2023-02-23T12:17:28;11.13;;;5.22;;
68858;SDS011;55864;49.238;8.092;2023-02-23T12:19:44;12.73;;;4.93;;
68858;SDS011;55864;49.238;8.092;2023-02-23T12:22:01;12.13;;;5.35;;
68858;SDS011;55864;49.238;8.092;2023-02-23T12:24:13;12.68;;;5.18;;
68858;SDS011;55864;49.238;8.092;2023-02-23T12:26:17;14.93;;;6.07;;